Time;durP1;ratioP1;P1;durP2;ratioP2;P2;SDS_P1;SDS_P2;PMS_P1;PMS_P2;Temp;Humidity;BMP_temperature;BMP_pressure;BME280_temperature;BME280_humidity;BME280_pressure;Samples;Min_cycle;Max_cycle;Signal;HPM_P1;HPM_P2
2022/08/11 00:02:05;;;;;;;2.47;1.70;;;22.10;65.60;;;22.59;63.59;101521.19;5165112;28;19921;-68
2022/08/11 00:04:40;;;;;;;3.10;2.22;;;22.00;65.90;;;22.50;63.86;101515.91;5165117;28;20138;-67
2022/08/11 00:07:13;;;;;;;2.10;1.77;;;21.90;66.20;;;22.42;64.62;101513.25;5165387;28;20494;-68
2022/08/11 00:09:46;;;;;;;3.38;1.77;;;21.80;66.70;;;22.34;64.95;101510.63;5147596;28;20497;-68
2022/08/11 00:12:19;;;;;;;3.10;2.05;;;21.70;67.10;;;22.27;65.35;101511.53;5163844;28;20050;-68
2022/08/11 00:14:59;;;;;;;2.45;1.75;;;21.70;67.20;;;22.20;65.38;101509.78;5165015;28;20049;-68
2022/08/11 00:17:34;;;;;;;2.30;1.85;;;21.60;67.40;;;22.12;65.46;101506.25;5165397;28;20042;-68
2022/08/11 00:20:11;;;;;;;2.70;1.80;;;21.50;67.40;;;22.05;65.87;101509.78;5165058;28;20046;-67
2022/08/11 00:22:47;;;;;;;2.38;1.90;;;21.50;67.80;;;21.98;66.16;101513.31;5147611;28;20100;-68
2022/08/11 00:25:22;;;;;;;2.80;1.80;;;21.40;68.10;;;21.91;66.57;101508.00;5165138;28;20120;-69
2022/08/11 00:27:54;;;;;;;2.70;1.98;;;21.30;68.40;;;21.86;66.75;101517.72;5165207;28;20050;-68
2022/08/11 00:30:40;;;;;;;2.45;2.00;;;21.30;68.70;;;21.81;66.88;101516.84;5165158;28;20054;-68
2022/08/11 00:33:15;;;;;;;2.42;1.90;;;21.20;68.80;;;21.75;67.76;101514.19;5164879;28;20109;-68
2022/08/11 00:35:51;;;;;;;2.28;1.95;;;21.20;69.40;;;21.72;68.10;101511.56;5164990;28;20058;-67
2022/08/11 00:38:28;;;;;;;2.47;2.10;;;21.10;69.60;;;21.68;68.81;101508.00;5164895;28;20694;-68
2022/08/11 00:41:11;;;;;;;2.00;1.80;;;21.10;70.20;;;21.65;68.50;101515.97;5147509;28;20499;-67
2022/08/11 00:44:23;;;;;;;3.25;2.00;;;21.00;70.00;;;21.61;69.12;101513.31;5147446;28;20081;-68
2022/08/11 00:47:13;;;;;;;3.05;2.10;;;21.00;70.50;;;21.58;69.40;101519.50;5147653;28;20061;-67
2022/08/11 00:50:20;;;;;;;3.03;1.98;;;21.00;70.80;;;21.54;69.32;101511.53;5164902;28;20519;-68
2022/08/11 00:53:32;;;;;;;2.55;2.00;;;20.90;70.70;;;21.47;69.49;101512.41;5151162;28;20062;-68
2022/08/11 00:57:14;;;;;;;2.50;1.88;;;20.90;70.90;;;21.39;69.78;101515.94;5165061;28;20089;-68
2022/08/11 01:00:09;;;;;;;3.97;1.92;;;20.80;71.10;;;21.33;69.80;101523.88;5164815;28;20051;-68
2022/08/11 01:03:16;;;;;;;2.83;2.10;;;20.70;71.30;;;21.29;70.19;101519.44;5164799;28;20054;-68
2022/08/11 01:06:22;;;;;;;2.58;2.03;;;20.70;71.60;;;21.25;70.23;101519.38;5164871;28;20034;-68
2022/08/11 01:09:21;;;;;;;2.78;2.20;;;20.70;71.80;;;21.18;69.97;101521.13;5164979;28;20046;-67
2022/08/11 01:12:21;;;;;;;2.17;1.98;;;20.60;71.60;;;21.10;70.37;101521.13;5157172;28;20081;-68
2022/08/11 01:15:33;;;;;;;3.17;2.00;;;20.50;71.90;;;21.05;70.51;101522.88;5164629;28;20034;-68
2022/08/11 01:18:54;;;;;;;4.70;2.10;;;20.50;72.10;;;21.01;70.79;101520.22;5147478;28;20085;-67
2022/08/11 01:22:15;;;;;;;2.25;2.05;;;20.40;72.40;;;20.96;71.33;101524.63;5165584;28;20152;-67
2022/08/11 01:26:01;;;;;;;3.08;2.20;;;20.40;72.90;;;20.91;71.39;101529.00;5168278;28;20097;-68
2022/08/11 01:29:31;;;;;;;3.22;2.47;;;20.40;73.10;;;20.85;71.53;101521.91;5168086;28;20046;-68
2022/08/11 01:32:47;;;;;;;3.00;2.25;;;20.30;73.30;;;20.77;71.81;101518.34;5148553;28;20404;-68
2022/08/11 01:35:59;;;;;;;2.53;2.17;;;20.20;73.60;;;20.69;71.88;101515.69;5125677;28;20062;-68
2022/08/11 01:39:10;;;;;;;2.88;2.10;;;20.20;73.80;;;20.61;72.01;101516.53;5167061;28;20078;-68
2022/08/11 01:45:37;;;;;;;2.72;2.53;;;20.00;74.50;;;20.55;72.13;101525.31;5141640;28;20193;-68
2022/08/11 01:48:20;;;;;;;2.42;2.05;;;20.00;74.50;;;20.52;72.07;101525.28;5167948;28;20043;-68
2022/08/11 01:51:14;;;;;;;2.83;2.00;;;20.00;74.40;;;20.49;72.63;101525.28;5167932;28;20061;-68
2022/08/11 01:53:56;;;;;;;3.25;1.80;;;20.00;74.90;;;20.47;72.91;101524.38;5167742;28;20414;-67
2022/08/11 01:56:56;;;;;;;2.08;1.80;;;20.00;75.40;;;20.43;73.08;101519.91;5166310;28;20047;-68
2022/08/11 01:59:36;;;;;;;2.60;2.28;;;19.90;75.50;;;20.39;72.98;101519.00;5167775;28;20039;-67
2022/08/11 02:02:48;;;;;;;2.40;2.20;;;19.90;75.60;;;20.38;72.43;101525.19;5167578;28;20078;-67
2022/08/11 02:05:35;;;;;;;3.58;2.03;;;19.80;75.40;;;20.38;71.94;101526.94;5167073;28;20057;-69
2022/08/11 02:08:21;;;;;;;2.20;2.00;;;19.80;75.10;;;20.38;71.70;101526.94;5167430;28;20050;-68
2022/08/11 02:14:03;;;;;;;5.97;2.17;;;19.80;75.20;;;20.31;71.93;101526.91;5167165;28;20116;-67
2022/08/11 02:16:45;;;;;;;;;;;19.80;75.50;;;20.25;72.16;101526.84;5167599;28;20054;-68
2022/08/11 02:25:57;;;;;;;5.63;2.35;;;19.70;75.50;;;20.17;72.12;101518.00;5149520;28;20389;-67
2022/08/11 02:28:44;;;;;;;3.30;2.30;;;19.60;75.90;;;20.12;72.29;101530.28;5167098;28;20081;-69
2022/08/11 02:34:38;;;;;;;2.30;2.10;;;19.50;76.30;;;20.04;72.92;101532.91;5166756;28;20049;-68
2022/08/11 02:37:23;;;;;;;3.40;2.50;;;19.50;76.90;;;20.04;72.83;101529.38;5166666;28;20050;-68
2022/08/11 02:40:19;;;;;;;3.17;2.30;;;19.50;77.00;;;20.01;72.80;101527.56;5149568;28;20050;-68
2022/08/11 02:43:27;;;;;;;2.63;2.33;;;19.50;77.10;;;19.99;73.36;101529.31;5166860;28;20070;-68
2022/08/11 02:46:19;;;;;;;2.30;2.10;;;19.40;77.60;;;19.98;72.92;101527.56;5166779;28;20043;-68
2022/08/11 02:52:09;;;;;;;2.88;2.42;;;19.40;77.50;;;19.95;72.82;101524.91;5166598;28;20137;-68
2022/08/11 02:54:54;;;;;;;2.78;2.20;;;19.40;77.50;;;19.93;72.82;101525.75;5166526;28;20050;-67
2022/08/11 02:57:33;;;;;;;3.00;2.67;;;19.40;77.60;;;19.90;73.31;101528.38;5166418;28;20043;-68
2022/08/11 03:00:10;;;;;;;3.03;2.30;;;19.40;78.10;;;19.82;73.44;101530.03;5166517;28;20132;-68
2022/08/11 03:03:23;;;;;;;4.00;2.38;;;19.30;78.40;;;19.73;74.08;101531.75;5166089;28;20051;-68
2022/08/11 03:06:05;;;;;;;;;;;19.20;78.80;;;19.68;74.49;101535.22;5166685;28;20092;-68
2022/08/11 03:08:51;;;;;;;2.92;2.60;;;19.20;79.40;;;19.63;74.86;101540.50;5166201;28;19932;-69
2022/08/11 03:18:01;;;;;;;2.85;2.50;;;19.00;81.00;;;19.48;76.23;101524.41;5166104;28;20056;-68
2022/08/11 03:20:44;;;;;;;3.50;2.60;;;19.00;81.70;;;19.44;76.41;101522.63;5165991;28;20090;-68
2022/08/11 03:23:30;;;;;;;3.25;2.70;;;19.00;82.00;;;19.40;76.97;101526.09;5165856;28;20042;-67
2022/08/11 03:26:14;;;;;;;3.08;2.20;;;18.90;82.50;;;19.35;76.96;101518.13;5166011;28;20038;-67
2022/08/11 03:29:05;;;;;;;3.35;2.63;;;18.90;83.60;;;19.30;77.17;101521.59;5165907;28;20392;-68
2022/08/11 03:31:47;;;;;;;3.35;2.85;;;18.80;83.30;;;19.24;77.22;101525.97;5165634;28;20134;-66
2022/08/11 03:34:24;;;;;;;4.88;3.13;;;18.80;83.60;;;19.24;76.73;101520.66;5165836;28;20053;-67
2022/08/11 03:37:49;;;;;;;4.93;2.70;;;18.80;83.50;;;19.24;76.99;101519.78;5165707;28;20038;-66
2022/08/11 03:43:56;;;;;;;4.35;2.97;;;18.70;84.20;;;19.21;77.78;101523.25;5165208;28;20054;-64
2022/08/11 03:46:44;;;;;;;3.50;2.65;;;18.70;84.90;;;19.17;78.24;101523.19;5165674;28;20054;-66
2022/08/11 03:49:35;;;;;;;3.70;2.80;;;18.70;86.10;;;19.14;78.65;101513.50;5165507;28;20392;-64
2022/08/11 03:52:17;;;;;;;5.20;2.90;;;18.70;86.00;;;19.10;78.81;101524.88;5165520;28;20118;-66
2022/08/11 03:55:01;;;;;;;3.95;2.88;;;18.60;86.40;;;19.06;78.96;101524.88;5165387;28;20054;-67
2022/08/11 03:58:21;;;;;;;5.55;3.30;;;18.60;86.70;;;19.00;79.46;101525.66;5165336;28;20403;-65
2022/08/11 04:01:38;;;;;;;5.05;2.50;;;18.60;87.40;;;18.95;79.88;101524.72;5165372;28;20407;-67
2022/08/11 04:05:07;;;;;;;3.72;2.72;;;18.50;88.20;;;18.91;79.99;101522.94;5149848;23;20082;-73
2022/08/11 04:08:31;;;;;;;3.53;2.92;;;18.50;88.60;;;18.87;80.13;101529.03;5098722;29;20047;-73
2022/08/11 04:12:11;;;;;;;5.28;3.28;;;18.40;89.00;;;18.87;80.34;101526.38;5076469;29;20149;-74
2022/08/11 04:19:09;;;;;;;4.22;2.88;;;18.40;90.00;;;18.83;80.51;101535.13;5025423;29;20061;-73
2022/08/11 04:22:21;;;;;;;3.65;3.00;;;18.40;90.10;;;18.81;80.36;101519.28;5021681;29;20057;-73
2022/08/11 04:25:36;;;;;;;4.22;2.88;;;18.40;90.20;;;18.81;79.85;101528.97;5085802;29;20050;-73
2022/08/11 04:28:44;;;;;;;2.90;2.50;;;18.30;90.10;;;18.81;79.73;101528.97;5085499;29;20075;-72
2022/08/11 04:31:40;;;;;;;3.40;2.53;;;18.40;90.10;;;18.80;79.38;101532.47;5075182;29;20167;-73
2022/08/11 04:34:51;;;;;;;3.83;2.85;;;18.30;90.10;;;18.82;79.41;101533.38;5068575;29;20104;-72
2022/08/11 04:38:12;;;;;;;4.55;3.00;;;18.40;90.10;;;18.85;79.52;101528.13;5095932;29;20047;-72
2022/08/11 04:40:58;;;;;;;3.40;2.88;;;18.40;90.50;;;18.87;79.55;101534.31;5103940;29;20385;-73
2022/08/11 04:44:16;;;;;;;4.55;3.13;;;18.40;90.30;;;18.89;79.71;101541.38;5097232;29;20154;-73
2022/08/11 05:01:39;;;;;;;3.85;2.92;;;18.40;90.30;;;18.91;79.98;101530.84;5087832;29;20044;-72
2022/08/11 05:03:36;;;;;;;3.78;2.85;;;18.70;90.90;;;19.41;79.99;101551.66;5104403;29;20044;-73
2022/08/11 05:06:39;;;;;;;;;;;18.80;90.80;;;19.55;79.60;101552.69;5096533;29;20051;-72
2022/08/11 05:09:51;;;;;;;3.83;2.90;;;19.00;90.70;;;19.64;79.09;101547.53;5103427;29;19930;-74
2022/08/11 05:12:34;;;;;;;3.85;2.80;;;19.10;90.60;;;19.77;78.36;101552.06;5089231;29;20054;-73
2022/08/11 05:36:05;;;;;;;4.18;2.90;;;24.30;71.50;;;28.75;50.81;101565.97;5114060;29;20055;-74
2022/08/11 05:56:18;;;;;;;4.40;2.45;;;32.70;49.20;;;36.20;38.11;101584.56;5088532;29;20036;-73
2022/08/11 05:58:52;;;;;;;;;;;33.50;48.60;;;36.72;36.41;101590.41;5106433;29;20408;-74
2022/08/11 06:01:30;;;;;;;4.45;2.63;;;34.00;47.00;;;37.33;36.18;101597.41;5094570;29;19927;-74
2022/08/11 06:04:16;;;;;;;6.82;2.78;;;34.50;47.00;;;37.87;35.73;101597.47;5106398;29;20051;-75
2022/08/11 06:06:54;;;;;;;5.57;2.10;;;35.10;45.70;;;38.40;34.54;101598.38;5104053;29;20444;-74
2022/08/11 06:09:32;;;;;;;3.60;2.33;;;35.50;44.60;;;38.85;33.92;101596.13;5104500;29;20523;-73
2022/08/11 06:12:08;;;;;;;4.15;2.30;;;36.00;43.80;;;39.23;33.43;101592.50;5100591;29;20070;-73
2022/08/11 06:14:44;;;;;;;5.15;2.55;;;36.30;43.30;;;39.59;32.96;101600.72;5083566;29;20141;-74
2022/08/11 06:17:23;;;;;;;3.75;2.20;;;36.70;42.80;;;39.86;32.96;101605.09;5085002;29;20055;-74
2022/08/11 06:20:01;;;;;;;4.70;2.40;;;37.00;42.50;;;40.31;32.70;101602.56;5104723;29;20056;-73
2022/08/11 06:22:34;;;;;;;3.58;2.15;;;37.40;42.20;;;39.78;32.82;101599.34;5100930;29;20047;-64
2022/08/11 06:25:08;;;;;;;6.00;2.63;;;37.30;41.90;;;37.54;34.34;101591.53;5099895;29;20100;-63
2022/08/11 06:27:44;;;;;;;5.15;2.30;;;36.00;42.50;;;35.20;36.77;101579.44;5102700;29;20046;-63
2022/08/11 06:30:18;;;;;;;4.68;2.45;;;34.30;44.00;;;33.43;39.00;101585.94;5101281;29;20079;-64
2022/08/11 06:32:54;;;;;;;4.50;2.47;;;32.70;45.80;;;32.02;41.09;101586.84;5106288;29;20074;-63
2022/08/11 06:35:39;;;;;;;4.85;2.35;;;31.30;47.60;;;30.88;42.60;101581.47;5099867;29;20139;-62
2022/08/11 06:38:16;;;;;;;5.57;2.72;;;30.20;48.90;;;30.06;44.10;101592.41;5103280;29;20135;-61
2022/08/11 06:43:51;;;;;;;4.22;2.35;;;28.60;51.40;;;28.87;46.36;101581.72;5103590;29;20044;-62
2022/08/11 06:46:31;;;;;;;5.32;2.55;;;28.10;52.30;;;28.49;47.11;101573.88;5105810;29;20110;-62
2022/08/11 06:51:10;;;;;;;3.42;2.25;;;27.70;53.00;;;28.17;47.53;101572.94;5106072;29;20114;-63
2022/08/11 06:52:00;;;;;;;3.97;2.60;;;27.30;53.50;;;27.99;48.59;101574.28;5106035;29;20527;-63
2022/08/11 06:54:40;;;;;;;3.35;2.25;;;27.20;54.30;;;27.92;49.00;101572.66;5106120;29;20094;-63
2022/08/11 07:00:27;;;;;;;4.35;2.63;;;26.90;54.70;;;27.79;49.51;101580.13;5106046;29;20052;-62
2022/08/11 07:03:03;;;;;;;3.88;2.78;;;26.90;55.20;;;27.78;49.41;101575.69;5105872;29;20047;-62
2022/08/11 07:05:46;;;;;;;5.65;2.55;;;26.90;55.30;;;27.75;49.59;101572.19;5105092;29;20058;-73
2022/08/11 07:15:42;;;;;;;3.47;2.85;;;26.90;56.00;;;27.98;49.87;101567.16;5102820;29;20044;-71
2022/08/11 07:30:11;;;;;;;3.85;2.63;;;27.40;55.20;;;28.57;48.06;101566.53;5104645;29;20143;-72
2022/08/11 07:32:50;;;;;;;4.80;2.53;;;27.50;54.70;;;28.63;47.27;101566.34;5101210;29;20075;-72
2022/08/11 07:35:29;;;;;;;4.13;2.70;;;27.60;54.00;;;28.72;46.38;101567.88;5104656;29;20069;-72
2022/08/11 07:38:07;;;;;;;2.88;2.10;;;27.70;53.20;;;28.72;45.39;101563.41;5099585;29;20500;-71
2022/08/11 07:40:39;;;;;;;4.43;2.42;;;27.80;52.30;;;28.83;45.80;101563.97;5096004;29;20114;-70
2022/08/11 07:43:14;;;;;;;3.65;2.50;;;27.80;52.40;;;28.81;45.90;101563.13;5103893;29;20146;-69
2022/08/11 07:54:20;;;;;;;2.75;2.50;;;28.40;52.10;;;29.44;44.17;101564.81;5084676;29;20382;-73
2022/08/11 07:56:53;;;;;;;5.47;2.55;;;28.40;51.30;;;29.56;44.72;101560.03;5084701;29;20044;-71
2022/08/11 08:19:21;;;;;;;2.88;2.20;;;30.00;49.60;;;32.31;40.48;101566.72;5085304;29;20052;-71
2022/08/11 08:21:54;;;;;;;3.80;2.15;;;30.20;49.20;;;32.60;39.99;101562.75;5085020;29;20072;-72
2022/08/11 08:24:29;;;;;;;6.38;2.38;;;30.40;48.50;;;32.90;39.53;101567.72;5085221;29;20162;-72
2022/08/11 08:27:03;;;;;;;4.95;2.40;;;30.60;48.30;;;33.41;39.10;101561.72;5084994;29;20040;-72
2022/08/11 08:32:27;;;;;;;4.13;2.30;;;31.20;47.80;;;34.89;37.22;101560.44;5089215;29;20451;-72
2022/08/11 08:35:01;;;;;;;2.42;2.03;;;31.60;47.20;;;35.95;36.32;101572.47;5089192;29;20044;-72
2022/08/11 08:37:33;;;;;;;3.13;2.25;;;32.20;47.20;;;36.79;34.97;101571.88;5106248;29;20505;-73
2022/08/11 08:40:09;;;;;;;2.60;2.22;;;32.80;45.80;;;37.75;34.20;101565.63;5102058;29;20154;-72
2022/08/11 08:42:52;;;;;;;2.92;2.10;;;33.50;44.80;;;38.63;33.29;101565.94;5099574;29;20042;-73
2022/08/11 08:45:26;;;;;;;2.50;1.98;;;34.30;44.10;;;39.50;32.62;101567.78;5106202;29;20040;-72
2022/08/11 08:48:01;;;;;;;4.25;2.17;;;35.10;43.30;;;39.68;31.51;101573.72;5104335;29;20040;-73
2022/08/11 08:53:31;;;;;;;2.35;1.88;;;36.10;41.60;;;40.53;30.85;101564.38;5104055;29;20056;-73
2022/08/11 08:56:06;;;;;;;2.65;1.80;;;36.60;40.90;;;41.08;30.68;101568.16;5106079;29;20416;-74
2022/08/11 08:58:42;;;;;;;2.30;1.90;;;37.10;40.80;;;41.25;30.18;101566.75;5104147;29;20040;-73
2022/08/11 09:01:16;;;;;;;2.95;1.92;;;37.40;41.00;;;41.24;30.68;101569.63;5103687;29;20572;-74
2022/08/11 09:03:49;;;;;;;2.22;1.80;;;37.50;40.40;;;41.57;29.92;101577.78;5108081;29;20080;-72
2022/08/11 09:06:21;;;;;;;4.72;1.88;;;37.70;39.80;;;41.49;30.43;101566.59;5090897;29;20113;-73
2022/08/11 09:08:54;;;;;;;3.40;1.98;;;37.80;39.60;;;41.36;29.91;101568.63;5096796;29;20390;-72
2022/08/11 09:14:20;;;;;;;2.55;1.90;;;37.70;39.60;;;40.21;30.68;101568.75;5095624;29;20051;-72
2022/08/11 09:16:53;;;;;;;2.67;1.60;;;37.30;39.30;;;39.59;31.34;101562.53;5103245;29;20075;-73
2022/08/11 09:19:26;;;;;;;;;;;36.80;40.70;;;38.79;30.63;101566.59;5091663;29;20054;-73
2022/08/11 09:27:37;;;;;;;3.70;1.83;;;35.30;39.90;;;36.47;32.08;101555.75;5087944;29;20530;-73
2022/08/11 09:30:12;;;;;;;2.60;1.90;;;34.90;40.50;;;36.04;32.71;101555.63;5088041;29;20060;-72
2022/08/11 09:32:44;;;;;;;1.92;1.70;;;34.60;40.50;;;35.58;33.29;101557.44;5088131;29;20048;-74
2022/08/11 09:35:16;;;;;;;2.88;2.03;;;34.30;41.10;;;35.16;33.73;101548.09;5088192;29;20143;-73
2022/08/11 09:40:43;;;;;;;2.03;1.83;;;33.90;42.30;;;34.81;34.03;101542.75;5086290;29;20135;-72
2022/08/11 09:46:11;;;;;;;3.17;1.60;;;33.40;41.60;;;34.27;34.53;101531.22;5086587;29;20517;-71
2022/08/11 09:48:46;;;;;;;3.33;1.70;;;33.30;42.00;;;34.39;34.97;101529.69;5087619;29;20132;-72
2022/08/11 09:51:18;;;;;;;2.03;1.70;;;33.30;42.50;;;34.52;34.85;101538.06;5092717;29;20135;-73
2022/08/11 09:53:51;;;;;;;2.15;1.60;;;33.30;42.30;;;34.59;34.49;101520.53;5097916;29;20139;-73
2022/08/11 09:59:14;;;;;;;2.83;1.85;;;33.20;41.40;;;34.21;34.84;101525.25;5099890;29;20059;-71
2022/08/11 10:01:54;;;;;;;2.70;2.05;;;33.20;42.50;;;34.22;34.30;101522.44;5094788;29;20044;-72
2022/08/11 10:07:25;;;;;;;2.42;1.65;;;33.10;42.40;;;34.43;34.81;101508.75;5086323;29;19923;-83
2022/08/11 10:09:59;;;;;;;;;;;33.30;42.90;;;34.52;33.54;101513.69;5074123;29;20506;-81
2022/08/11 10:12:36;;;;;;;4.68;1.98;;;33.30;41.10;;;34.47;33.88;101513.94;5090453;29;19923;-81
2022/08/11 10:21:01;;;;;;;2.45;1.83;;;33.30;41.40;;;34.52;34.59;101508.28;5073501;29;20075;-81
2022/08/11 10:35:06;;;;;;;3.20;2.10;;;33.30;41.80;;;34.53;32.92;101493.78;5089570;29;20523;-82
2022/08/11 10:37:38;;;;;;;2.72;2.00;;;33.30;40.90;;;34.19;33.66;101495.56;5090369;29;20055;-82
2022/08/11 10:40:15;;;;;;;2.42;2.17;;;33.20;42.10;;;34.19;33.49;101489.28;5089113;29;20051;-81
2022/08/11 10:43:06;;;;;;;2.65;2.10;;;33.10;41.10;;;34.26;33.81;101482.59;5092598;29;20040;-85
2022/08/11 10:48:37;;;;;;;2.80;2.10;;;33.20;41.80;;;34.61;34.09;101474.41;5075193;29;20048;-83
2022/08/11 10:51:12;;;;;;;4.10;2.10;;;33.30;41.90;;;34.43;34.25;101477.19;5074223;29;20048;-81
2022/08/11 10:59:29;;;;;;;4.22;2.50;;;33.10;41.50;;;34.37;33.28;101469.38;5090936;29;19930;-83
2022/08/11 11:02:02;;;;;;;2.90;2.15;;;33.20;41.00;;;34.48;33.44;101457.97;5073573;29;20618;-81
2022/08/11 11:04:52;;;;;;;4.70;2.30;;;33.30;41.10;;;34.59;33.54;101460.97;5090211;29;20459;-81
2022/08/11 11:07:37;;;;;;;4.47;2.58;;;33.40;41.40;;;34.36;33.24;101469.44;5084172;29;20056;-81
2022/08/11 11:10:09;;;;;;;3.78;2.42;;;33.30;40.70;;;34.14;32.88;101469.72;5072027;29;20507;-82
2022/08/11 11:18:34;;;;;;;3.10;2.22;;;33.10;41.40;;;34.38;33.89;101432.34;5091595;29;20036;-81
2022/08/11 11:21:09;;;;;;;3.45;2.10;;;33.20;41.30;;;34.60;33.66;101430.22;5077016;29;20052;-84
2022/08/11 11:23:53;;;;;;;2.10;1.90;;;33.40;41.50;;;34.81;34.18;101428.13;5090604;29;20402;-83
2022/08/11 11:26:40;;;;;;;3.28;2.05;;;33.60;42.40;;;35.11;34.56;101421.97;5093372;29;20529;-81
2022/08/11 11:29:41;;;;;;;2.72;2.10;;;33.80;42.20;;;35.14;33.44;101410.94;5094648;29;20044;-83
2022/08/11 11:32:24;;;;;;;2.25;2.05;;;33.90;40.90;;;34.86;33.40;101417.03;5098694;29;20187;-83
2022/08/11 11:35:25;;;;;;;2.33;2.10;;;33.80;40.80;;;34.70;33.86;101417.94;5098174;29;20047;-82
2022/08/11 11:37:58;;;;;;;1.90;1.80;;;33.70;41.50;;;34.80;33.69;101410.13;5114535;29;20040;-82
2022/08/11 11:40:32;;;;;;;2.10;1.90;;;33.70;41.40;;;34.96;33.46;101404.78;5115189;29;20111;-83
2022/08/11 11:43:05;;;;;;;2.05;1.83;;;33.80;41.00;;;35.11;33.56;101403.88;5099129;29;20052;-81
2022/08/11 11:45:41;;;;;;;2.55;1.60;;;33.90;41.40;;;35.16;34.40;101396.34;5090514;29;20050;-83
2022/08/11 11:48:13;;;;;;;4.20;2.25;;;34.00;41.20;;;35.09;33.11;101400.38;5073493;29;20052;-82
2022/08/11 11:50:45;;;;;;;2.50;1.90;;;33.90;40.50;;;35.11;33.09;101403.00;5090243;29;20051;-82
2022/08/11 11:53:18;;;;;;;4.32;2.20;;;34.00;40.80;;;34.99;32.59;101393.75;5088711;29;20103;-80
2022/08/11 11:55:53;;;;;;;3.15;2.00;;;33.90;40.20;;;34.84;33.19;101402.72;5069719;29;20524;-83
2022/08/11 12:01:16;;;;;;;3.08;2.13;;;33.80;40.90;;;34.91;33.76;101393.28;5104106;29;20047;-83
2022/08/11 12:03:52;;;;;;;2.60;1.90;;;33.80;41.50;;;34.75;32.97;101391.44;5109967;29;20067;-83
2022/08/11 12:06:26;;;;;;;3.58;1.85;;;33.70;40.30;;;34.62;33.92;101395.81;5108437;29;20063;-82
2022/08/11 12:08:59;;;;;;;4.05;2.30;;;33.60;41.00;;;34.34;33.29;101384.75;5091281;29;20065;-82
2022/08/11 12:14:26;;;;;;;2.67;2.10;;;33.30;41.00;;;34.27;33.74;101385.09;5085129;29;20066;-82
2022/08/11 12:16:59;;;;;;;3.90;1.80;;;33.30;41.30;;;34.44;34.21;101375.22;5072956;29;20556;-82
2022/08/11 12:19:31;;;;;;;2.65;2.25;;;33.40;41.60;;;34.62;33.51;101382.28;5090275;29;20048;-82
2022/08/11 12:27:45;;;;;;;2.42;2.00;;;33.60;40.00;;;34.68;32.64;101360.25;5089563;29;20086;-82
2022/08/11 12:30:19;;;;;;;2.78;1.88;;;33.60;40.20;;;34.68;33.58;101356.69;5073699;29;20074;-83
2022/08/11 12:32:52;;;;;;;3.47;2.15;;;33.60;41.00;;;34.57;33.00;101360.03;5089453;29;20048;-81
2022/08/11 12:35:25;;;;;;;3.25;2.10;;;33.50;40.40;;;34.55;33.54;101351.09;5089007;29;20059;-81
2022/08/11 12:38:00;;;;;;;2.72;2.10;;;33.50;40.80;;;34.62;32.85;101351.63;5072628;29;20071;-82
2022/08/11 12:46:22;;;;;;;2.70;2.03;;;33.60;39.90;;;34.80;32.48;101345.16;5085627;29;20048;-83
2022/08/11 12:51:58;;;;;;;4.93;2.22;;;33.70;40.70;;;34.49;33.73;101348.75;5089964;29;20040;-81
2022/08/11 12:54:42;;;;;;;2.25;1.80;;;33.60;41.00;;;34.48;33.60;101333.47;5089423;29;20119;-83
2022/08/11 13:05:54;;;;;;;2.17;1.98;;;33.60;40.30;;;34.69;33.45;101320.53;5088859;29;20048;-81
2022/08/11 13:08:29;;;;;;;2.22;1.77;;;33.60;40.80;;;34.73;32.79;101322.09;5088763;29;20490;-81
2022/08/11 13:13:55;;;;;;;3.40;2.20;;;33.70;41.10;;;34.75;33.98;101321.03;5072996;29;20147;-83
2022/08/11 13:17:19;;;;;;;2.22;2.00;;;33.60;41.50;;;34.73;33.43;101317.56;5090296;29;20066;-82
2022/08/11 13:19:25;;;;;;;2.55;2.00;;;33.70;40.90;;;34.76;33.43;101317.41;5096017;29;20052;-82
2022/08/11 13:21:59;;;;;;;6.78;2.38;;;33.70;40.70;;;34.53;33.65;101309.72;5097007;29;20044;-84
2022/08/11 13:24:32;;;;;;;2.95;2.30;;;33.60;40.90;;;34.42;33.22;101304.91;5079957;29;20063;-82
2022/08/11 13:27:05;;;;;;;5.00;2.35;;;33.50;40.40;;;34.36;33.52;101301.66;5097161;29;20055;-84
2022/08/11 13:29:39;;;;;;;5.15;2.22;;;33.40;40.70;;;34.23;32.95;101296.97;5097983;29;20048;-82
2022/08/11 13:32:14;;;;;;;2.67;2.22;;;33.30;40.20;;;34.07;33.22;101296.06;5080439;29;20083;-84
2022/08/11 13:34:47;;;;;;;2.60;2.03;;;33.20;40.50;;;33.87;35.78;101283.59;5080145;29;20507;-81
2022/08/11 13:37:21;;;;;;;2.25;2.05;;;33.10;42.20;;;33.92;34.34;101284.25;5080597;29;20059;-83
2022/08/11 13:39:54;;;;;;;4.32;2.33;;;33.00;41.50;;;33.97;34.80;101284.00;5108948;28;20044;-83
2022/08/11 13:42:26;;;;;;;2.47;1.95;;;33.10;42.20;;;33.94;34.72;101300.41;5096281;29;20052;-83
2022/08/11 13:44:59;;;;;;;2.70;2.38;;;33.00;41.90;;;33.82;34.99;101290.22;5084653;29;20048;-82
2022/08/11 13:47:32;;;;;;;2.83;2.25;;;33.00;42.10;;;33.81;34.21;101293.88;5078477;29;20052;-82
2022/08/11 13:50:06;;;;;;;;;;;32.90;41.40;;;33.80;34.92;101282.19;5077725;29;20074;-82
2022/08/11 13:52:40;;;;;;;2.90;2.22;;;32.90;42.00;;;33.81;34.72;101278.53;5075729;29;19923;-82
2022/08/11 13:55:20;;;;;;;5.50;2.10;;;32.90;42.00;;;33.74;33.86;101274.41;5082960;29;20051;-83
2022/08/11 13:57:53;;;;;;;3.67;1.90;;;32.90;41.00;;;33.61;34.05;101282.31;5090692;29;20096;-83
2022/08/11 14:00:30;;;;;;;4.18;2.20;;;32.80;41.30;;;33.59;34.46;101277.97;5096589;29;20048;-83
2022/08/11 14:03:06;;;;;;;3.60;2.33;;;32.70;41.50;;;33.61;33.31;101276.03;5079054;29;20111;-83
2022/08/11 14:05:43;;;;;;;2.55;2.35;;;32.70;40.70;;;33.65;32.71;101267.69;5092896;29;20048;-87
2022/08/11 14:08:18;;;;;;;2.30;2.08;;;32.70;40.20;;;33.74;33.03;101267.19;5087603;29;20044;-86
2022/08/11 14:13:36;;;;;;;2.40;2.00;;;32.80;40.30;;;33.86;33.38;101264.78;5091871;29;20036;-88
2022/08/11 14:13:44;;;;;;;3.10;1.95;;;32.80;40.70;;;33.89;32.80;101265.47;5089081;29;20052;-86
2022/08/11 14:16:33;;;;;;;2.53;2.10;;;32.90;40.30;;;33.90;32.78;101258.22;5089185;29;20076;-87
2022/08/11 14:19:10;;;;;;;2.58;2.33;;;32.90;40.20;;;33.84;32.71;101262.13;5070073;29;20044;-85
2022/08/11 14:24:36;;;;;;;3.22;2.47;;;32.90;40.10;;;33.79;32.89;101250.72;5088465;29;20044;-86
2022/08/11 14:27:11;;;;;;;3.17;2.33;;;32.80;40.20;;;33.82;32.95;101247.81;5084154;29;20050;-85
2022/08/11 14:29:46;;;;;;;2.33;2.10;;;32.80;40.20;;;33.85;32.78;101241.41;5057323;29;20051;-86
2022/08/11 14:32:21;;;;;;;3.40;2.20;;;32.90;40.20;;;33.89;33.43;101241.13;5052420;29;20072;-87
2022/08/11 14:34:55;;;;;;;2.38;1.80;;;32.90;41.30;;;33.96;32.97;101231.75;5069108;29;20419;-86
2022/08/11 14:37:28;;;;;;;3.25;1.70;;;32.90;40.50;;;34.05;33.74;101230.38;5067512;29;20423;-86
2022/08/11 14:47:03;;;;;;;2.60;2.40;;;33.00;41.00;;;34.07;33.00;101231.13;5071215;29;20081;-86
2022/08/11 14:48:36;;;;;;;3.72;2.30;;;33.00;40.20;;;33.99;32.05;101222.59;5073487;29;20080;-86
2022/08/11 14:51:10;;;;;;;2.42;2.13;;;33.10;39.40;;;33.95;32.24;101223.72;5052875;29;20048;-84
2022/08/11 14:53:42;;;;;;;;;;;33.00;39.50;;;33.89;32.23;101221.31;5084435;29;20032;-81
2022/08/11 14:59:09;;;;;;;2.63;2.10;;;32.90;39.60;;;33.88;32.04;101208.75;5058830;29;20063;-84
2022/08/11 15:04:33;;;;;;;2.28;2.05;;;32.90;40.00;;;33.92;32.87;101211.25;5069630;29;20072;-86
2022/08/11 15:07:09;;;;;;;3.92;2.22;;;32.90;40.20;;;33.87;32.66;101207.03;5070303;29;20518;-87
2022/08/11 15:09:42;;;;;;;3.00;2.30;;;32.90;40.10;;;33.82;31.87;101203.69;5051863;29;20143;-86
2022/08/11 15:12:17;;;;;;;4.57;2.25;;;32.80;39.30;;;33.79;32.05;101210.16;5067626;29;20064;-87
2022/08/11 15:17:42;;;;;;;2.28;1.88;;;32.80;39.60;;;33.63;32.32;101199.31;5089403;29;20036;-84
2022/08/11 15:26:06;;;;;;;3.47;2.33;;;32.70;40.50;;;33.72;33.18;101196.13;5101985;29;20052;-84
2022/08/11 15:37:26;;;;;;;3.22;1.90;;;32.60;39.90;;;33.51;32.68;101170.25;5099465;29;20167;-83
2022/08/11 15:46:07;;;;;;;3.72;2.33;;;32.50;40.30;;;33.44;33.77;101168.84;5080796;29;20071;-83
2022/08/11 15:48:46;;;;;;;4.28;2.50;;;32.50;40.90;;;33.38;33.07;101161.91;5094574;29;20120;-82